Terminal Aerodrome Forecast
Issued by NWS

Home | Current Version | Previous Version | Text Only | Print | Product List | Glossary Off
Versions: 1 2 3 4 5 6 7 8 9 10 11 12 13 14 15 16 17 18 19 20 21 22 23 24

000
FTUS43 KICT 180500
TAFRSL
TAF
KRSL 180520Z 1806/1906 08010KT P6SM VCTS BKN070CB
     FM180900 10007KT 5SM BR BKN007
     FM181100 10008KT 2SM BR OVC005
     FM181600 12008KT P6SM BKN015
     FM181900 13011KT P6SM FEW040
     FM190100 14009KT P6SM SCT150=

USA.gov is the U.S. government's official web portal to all federal, state and local government web resources and services.